Time;durP1;ratioP1;P1;durP2;ratioP2;P2;SDS_P1;SDS_P2;PMS_P1;PMS_P2;Temp;Humidity;BMP_temperature;BMP_pressure;BME280_temperature;BME280_humidity;BME280_pressure;Samples;Min_cycle;Max_cycle;Signal;HPM_P1;HPM_P2
2022/01/02 00:00:43;;;;;;;12.15;9.77;;;;;;;7.99;100.00;101103.94;5031092;28;20030;-76
2022/01/02 00:03:08;;;;;;;13.75;9.35;;;;;;;8.02;100.00;101114.38;5030713;28;20503;-78
2022/01/02 00:05:38;;;;;;;12.65;9.45;;;;;;;7.91;100.00;101090.66;5029846;28;20091;-78
2022/01/02 00:08:06;;;;;;;12.02;8.85;;;;;;;8.13;100.00;101125.31;5031044;28;20033;-78
2022/01/02 00:10:56;;;;;;;12.77;9.40;;;;;;;8.16;100.00;101124.59;5030805;28;20033;-80
2022/01/02 00:13:27;;;;;;;12.27;9.50;;;;;;;8.24;100.00;101139.66;5030490;28;20030;-78
2022/01/02 00:15:55;;;;;;;11.73;8.07;;;;;;;8.26;100.00;101140.66;5029586;28;20040;-80
2022/01/02 00:18:26;;;;;;;11.73;8.95;;;;;;;8.25;100.00;101125.13;5049335;28;20032;-77
2022/01/02 00:20:52;;;;;;;11.77;8.48;;;;;;;8.24;100.00;101125.94;5050579;28;20029;-75
2022/01/02 00:23:23;;;;;;;12.48;8.80;;;;;;;8.29;100.00;101142.50;5050760;28;20060;-76
2022/01/02 00:25:53;;;;;;;12.07;9.25;;;;;;;8.23;100.00;101135.31;5050097;28;20039;-76
2022/01/02 00:28:20;;;;;;;12.43;9.20;;;;;;;8.26;100.00;101148.38;5051061;28;20062;-76
2022/01/02 00:30:48;;;;;;;13.70;10.35;;;;;;;8.23;100.00;101152.44;5050690;28;20044;-75
2022/01/02 00:33:14;;;;;;;11.88;9.68;;;;;;;7.98;100.00;101121.88;5030597;28;20025;-75
2022/01/02 00:35:40;;;;;;;11.93;9.43;;;;;;;8.05;100.00;101150.59;5030647;28;20034;-75
2022/01/02 00:38:06;;;;;;;12.73;9.00;;;;;;;8.04;100.00;101153.06;5030558;28;20079;-76
2022/01/02 00:40:38;;;;;;;12.18;9.48;;;;;;;8.02;100.00;101160.69;4978884;28;20045;-75
2022/01/02 00:43:04;;;;;;;13.65;10.25;;;;;;;7.73;100.00;101123.00;5030328;28;20030;-72
2022/01/02 00:45:40;;;;;;;14.98;9.23;;;;;;;7.88;100.00;101162.44;5012694;28;20050;-72
2022/01/02 00:48:22;;;;;;;13.13;9.32;;;;;;;7.69;100.00;101139.91;5030342;28;20502;-75
2022/01/02 00:50:56;;;;;;;11.95;9.50;;;;;;;7.77;100.00;101156.66;5028415;28;20033;-73
2022/01/02 00:53:25;;;;;;;18.45;9.93;;;;;;;7.88;100.00;101170.16;5030201;28;20038;-72
2022/01/02 00:55:59;;;;;;;14.93;10.30;;;;;;;7.81;100.00;101151.72;5030642;28;20043;-75
2022/01/02 00:58:52;;;;;;;12.73;9.63;;;;;;;7.86;100.00;101160.59;5030135;28;20163;-77
2022/01/02 01:01:24;;;;;;;12.80;9.52;;;;;;;7.87;100.00;101155.53;5030275;28;20038;-77
2022/01/02 01:03:52;;;;;;;12.82;9.23;;;;;;;8.01;100.00;101171.78;5030842;28;20472;-79
2022/01/02 01:06:23;;;;;;;14.48;9.80;;;;;;;7.89;100.00;101148.81;5030310;28;20039;-76
2022/01/02 01:08:55;;;;;;;12.07;9.90;;;;;;;7.99;100.00;101157.03;5030140;28;20025;-75
2022/01/02 01:11:24;;;;;;;12.85;9.35;;;;;;;7.88;100.00;101147.03;5030177;28;20112;-81
2022/01/02 01:13:50;;;;;;;12.43;9.73;;;;;;;7.96;100.00;101154.31;5029855;28;20037;-78
2022/01/02 01:16:17;;;;;;;13.25;9.85;;;;;;;7.85;100.00;101134.00;5029044;28;20030;-77
2022/01/02 01:18:43;;;;;;;13.70;9.27;;;;;;;7.93;100.00;101157.59;5027592;28;20498;-82
2022/01/02 01:21:09;;;;;;;15.32;10.10;;;;;;;7.88;100.00;101152.16;5029537;28;20030;-78
2022/01/02 01:23:35;;;;;;;13.55;9.90;;;;;;;7.68;100.00;101127.00;5042766;28;20151;-80
2022/01/02 01:26:06;;;;;;;14.85;9.98;;;;;;;7.73;100.00;101165.00;5032101;28;20558;-78
2022/01/02 01:28:31;;;;;;;14.23;11.20;;;;;;;7.71;100.00;101161.47;5050228;28;20028;-78
2022/01/02 01:30:57;;;;;;;12.77;9.93;;;;;;;7.66;100.00;101169.69;5052560;28;20071;-80
2022/01/02 01:33:22;;;;;;;14.93;10.65;;;;;;;7.56;100.00;101170.81;5035861;28;20418;-80
2022/01/02 01:35:48;;;;;;;13.63;9.52;;;;;;;7.36;100.00;101142.22;5053524;28;20036;-78
2022/01/02 01:38:13;;;;;;;18.08;11.32;;;;;;;7.44;100.00;101165.84;5053931;28;20032;-80
2022/01/02 01:40:58;;;;;;;13.07;9.18;;;;;;;7.32;100.00;101168.53;5035493;28;20518;-82
2022/01/02 01:43:39;;;;;;;12.27;9.77;;;;;;;7.27;100.00;101168.22;5053601;28;20114;-82
2022/01/02 01:46:05;;;;;;;13.02;9.65;;;;;;;7.23;100.00;101180.81;5053767;28;20040;-82
2022/01/02 01:48:31;;;;;;;14.13;10.27;;;;;;;7.11;100.00;101175.78;5035484;28;20494;-82
2022/01/02 01:50:56;;;;;;;12.20;9.18;;;;;;;7.02;100.00;101168.41;5035247;28;20033;-77
2022/01/02 01:53:22;;;;;;;13.82;10.55;;;;;;;7.03;100.00;101179.53;5053249;28;20025;-81
2022/01/02 01:55:49;;;;;;;14.55;10.20;;;;;;;7.01;100.00;101181.16;5053563;28;20039;-80
2022/01/02 01:58:15;;;;;;;14.50;9.75;;;;;;;7.06;100.00;101185.75;5053600;28;20510;-78
2022/01/02 02:00:42;;;;;;;12.02;9.48;;;;;;;7.12;100.00;101188.72;5053301;28;20094;-78
2022/01/02 02:03:07;;;;;;;14.30;10.10;;;;;;;6.88;100.00;101136.75;5035522;28;20033;-79
2022/01/02 02:05:33;;;;;;;13.45;10.57;;;;;;;7.22;100.00;101187.63;5035548;28;20472;-80
2022/01/02 02:07:59;;;;;;;13.52;9.75;;;;;;;7.18;100.00;101177.03;5051338;28;20384;-79
2022/01/02 02:10:29;;;;;;;12.27;9.30;;;;;;;7.17;100.00;101193.28;5035647;28;20501;-81
2022/01/02 02:12:55;;;;;;;;;;;;;;;7.15;100.00;101189.72;5053444;28;20028;-79
2022/01/02 02:15:21;;;;;;;12.05;9.43;;;;;;;7.09;100.00;101188.53;5053075;28;19913;-79
2022/01/02 02:17:50;;;;;;;11.40;9.07;;;;;;;7.03;100.00;101177.88;5053370;28;20032;-79
2022/01/02 02:20:23;;;;;;;11.77;9.32;;;;;;;7.03;100.00;101194.94;5052389;28;20067;-79
2022/01/02 02:22:52;;;;;;;14.02;10.00;;;;;;;6.86;100.00;101188.78;5034802;28;20035;-79
2022/01/02 02:25:21;;;;;;;11.57;8.45;;;;;;;6.97;100.00;101200.59;5053326;28;20051;-77
2022/01/02 02:27:49;;;;;;;14.73;9.60;;;;;;;6.78;100.00;101149.78;5052946;28;20121;-80
2022/01/02 02:30:14;;;;;;;13.95;9.90;;;;;;;7.05;100.00;101191.72;5052585;28;20025;-76
2022/01/02 02:32:40;;;;;;;12.00;9.77;;;;;;;7.04;100.00;101184.81;5051481;28;20048;-77
2022/01/02 02:35:06;;;;;;;13.10;9.95;;;;;;;7.07;100.00;101181.53;5052565;28;20024;-77
2022/01/02 02:37:31;;;;;;;16.75;10.65;;;;;;;7.13;100.00;101181.91;5052687;28;20495;-78
2022/01/02 02:39:57;;;;;;;17.73;10.88;;;;;;;7.10;100.00;101174.00;5052756;28;20040;-77
2022/01/02 02:51:16;;;;;;;13.65;9.30;;;;;;;6.94;100.00;101200.41;4952266;29;20066;-77
2022/01/02 02:53:46;;;;;;;15.52;9.57;;;;;;;6.93;100.00;101198.66;4935299;29;20039;-78
2022/01/02 02:56:25;;;;;;;11.13;8.85;;;;;;;6.74;100.00;101160.63;4951662;28;20532;-78
2022/01/02 02:58:55;;;;;;;11.75;9.23;;;;;;;6.83;100.00;101189.47;4935654;29;20039;-79
2022/01/02 03:01:23;;;;;;;12.27;9.15;;;;;;;6.91;100.00;101206.22;4951909;29;20047;-78
2022/01/02 03:03:49;;;;;;;12.02;9.57;;;;;;;6.57;100.00;101150.19;4951927;28;20409;-76
2022/01/02 03:06:16;;;;;;;12.88;9.60;;;;;;;6.93;100.00;101199.53;4951435;29;20043;-77
2022/01/02 03:08:43;;;;;;;12.00;9.48;;;;;;;7.01;100.00;101206.81;4951846;29;20051;-79
2022/01/02 03:11:14;;;;;;;14.13;9.93;;;;;;;7.00;100.00;101202.47;4951633;28;20043;-80
2022/01/02 03:13:40;;;;;;;11.73;9.07;;;;;;;6.95;100.00;101197.03;4951495;29;20039;-78
2022/01/02 03:16:06;;;;;;;13.43;9.88;;;;;;;6.90;100.00;101204.47;4951346;29;20075;-78
2022/01/02 03:18:33;;;;;;;14.98;10.07;;;;;;;6.64;100.00;101207.91;4951140;28;20063;-77
2022/01/02 03:20:58;;;;;;;13.52;9.30;;;;;;;6.51;100.00;101195.97;4950968;28;20043;-77
2022/01/02 03:23:24;;;;;;;14.82;10.40;;;;;;;6.56;100.00;101224.50;4990139;28;20042;-80
2022/01/02 03:25:50;;;;;;;13.80;10.73;;;;;;;6.43;100.00;101199.69;5042782;28;20045;-80
2022/01/02 03:28:15;;;;;;;13.35;9.93;;;;;;;6.54;100.00;101224.41;5033967;28;20037;-80
2022/01/02 03:30:41;;;;;;;12.80;9.35;;;;;;;6.46;100.00;101189.66;5051749;28;20394;-78
2022/01/02 03:33:07;;;;;;;11.45;9.40;;;;;;;6.56;100.00;101229.63;5033653;28;20028;-77
2022/01/02 03:35:33;;;;;;;12.73;9.35;;;;;;;6.58;100.00;101218.69;5051562;28;20112;-78
2022/01/02 03:37:59;;;;;;;11.68;9.10;;;;;;;6.56;100.00;101221.94;5033774;28;20115;-78
2022/01/02 03:40:24;;;;;;;12.57;9.48;;;;;;;6.63;100.00;101242.94;5033700;28;20494;-78
2022/01/02 03:42:50;;;;;;;14.88;10.05;;;;;;;6.31;100.00;101198.13;5032290;28;20039;-79
2022/01/02 03:45:15;;;;;;;13.63;9.90;;;;;;;6.45;100.00;101234.91;5032457;28;20132;-80
2022/01/02 03:47:41;;;;;;;15.48;9.70;;;;;;;6.37;100.00;101227.50;5033018;28;20025;-79
2022/01/02 03:50:07;;;;;;;15.10;10.80;;;;;;;6.17;100.00;101200.56;5033166;28;20067;-78
2022/01/02 03:52:33;;;;;;;12.60;9.32;;;;;;;6.25;100.00;101217.34;5050837;28;20021;-78
2022/01/02 03:54:58;;;;;;;15.10;10.18;;;;;;;6.03;100.00;101174.00;5033663;28;20018;-79
2022/01/02 03:57:24;;;;;;;15.25;9.68;;;;;;;6.28;100.00;101228.69;5033360;28;20029;-77
2022/01/02 03:59:50;;;;;;;12.15;9.70;;;;;;;6.50;100.00;101255.75;5051270;28;20025;-77
2022/01/02 04:02:15;;;;;;;23.85;9.68;;;;;;;6.52;100.00;101243.94;5033193;28;20052;-76
2022/01/02 04:04:41;;;;;;;11.65;9.38;;;;;;;6.42;100.00;101242.44;5048890;28;20033;-80
2022/01/02 04:07:06;;;;;;;12.02;9.07;;;;;;;6.42;100.00;101252.69;5031652;28;20025;-80
2022/01/02 04:09:32;;;;;;;17.13;10.10;;;;;;;6.23;100.00;101214.69;5050252;28;20773;-81
2022/01/02 04:11:57;;;;;;;13.27;9.45;;;;;;;6.39;100.00;101247.38;5050297;28;20028;-79
2022/01/02 04:14:23;;;;;;;14.82;9.75;;;;;;;6.36;100.00;101251.41;5049901;28;20056;-80
2022/01/02 04:16:49;;;;;;;15.55;10.38;;;;;;;6.23;100.00;101268.53;5049960;28;20118;-78
2022/01/02 04:19:14;;;;;;;15.13;11.20;;;;;;;6.04;100.00;101268.06;5031474;28;20036;-78
2022/01/02 04:21:40;;;;;;;18.15;10.05;;;;;;;5.93;100.00;101270.75;5049520;28;20025;-74
2022/01/02 04:24:05;;;;;;;14.68;10.70;;;;;;;5.67;100.00;101227.97;5032988;28;20120;-77
2022/01/02 04:26:31;;;;;;;15.50;10.88;;;;;;;5.31;100.00;101188.78;5049932;28;20487;-78
2022/01/02 04:28:57;;;;;;;14.57;10.00;;;;;;;5.75;100.00;101241.31;5049734;28;20067;-79
2022/01/02 04:31:23;;;;;;;14.07;10.40;;;;;;;5.82;100.00;101264.00;5030773;28;20025;-77
2022/01/02 04:33:49;;;;;;;15.40;11.48;;;;;;;5.58;100.00;101258.06;5049272;28;20036;-78
2022/01/02 04:36:14;;;;;;;16.55;12.05;;;;;;;5.15;100.00;101222.66;5032112;28;20021;-78
2022/01/02 04:38:42;;;;;;;17.02;12.77;;;;;;;5.23;100.00;101270.16;5049716;28;20463;-79
2022/01/02 04:41:07;;;;;;;16.65;11.93;;;;;;;5.50;100.00;101286.59;5049917;28;20075;-79
2022/01/02 04:43:33;;;;;;;14.23;10.93;;;;;;;5.27;100.00;101225.19;5049397;28;20053;-80
2022/01/02 04:45:59;;;;;;;16.27;11.77;;;;;;;5.45;100.00;101254.63;5046854;28;20036;-78
2022/01/02 04:48:24;;;;;;;19.23;12.02;;;;;;;5.64;100.00;101282.41;5049233;28;20507;-78
2022/01/02 04:50:50;;;;;;;15.45;10.63;;;;;;;5.57;100.00;101264.88;5050019;28;20051;-79
2022/01/02 04:53:16;;;;;;;13.35;11.20;;;;;;;5.43;100.00;101237.38;5049436;28;20045;-77
2022/01/02 04:55:42;;;;;;;17.52;11.43;;;;;;;5.60;100.00;101282.13;5049141;28;20044;-77
2022/01/02 04:58:07;;;;;;;15.52;11.05;;;;;;;5.41;100.00;101259.44;5031736;28;20043;-77
2022/01/02 05:00:33;;;;;;;14.55;11.20;;;;;;;5.51;100.00;101290.06;5049637;28;20100;-77
2022/01/02 05:02:59;;;;;;;16.88;11.10;;;;;;;5.23;100.00;101298.31;5049111;28;20032;-78
2022/01/02 05:05:24;;;;;;;19.52;11.38;;;;;;;5.14;100.00;101287.44;5051582;28;20103;-78
2022/01/02 05:07:50;;;;;;;13.25;10.57;;;;;;;5.04;100.00;101290.09;5053726;28;20029;-78
2022/01/02 05:10:15;;;;;;;15.18;11.23;;;;;;;4.90;100.00;101246.50;5053101;28;20475;-77
2022/01/02 05:12:40;;;;;;;15.25;11.38;;;;;;;5.07;100.00;101298.00;5053316;28;20070;-77
2022/01/02 05:15:07;;;;;;;15.10;11.32;;;;;;;5.12;100.00;101304.31;5053273;28;20411;-78
2022/01/02 05:17:32;;;;;;;15.15;11.32;;;;;;;5.15;100.00;101315.69;5053310;28;20044;-78
2022/01/02 05:19:58;;;;;;;28.73;11.23;;;;;;;5.04;100.00;101311.47;5053818;28;20029;-79
2022/01/02 05:22:23;;;;;;;16.25;10.65;;;;;;;5.12;100.00;101309.44;5032007;28;20475;-78
2022/01/02 05:24:49;;;;;;;17.13;11.77;;;;;;;5.09;100.00;101304.13;5033126;28;20033;-75
2022/01/02 05:27:14;;;;;;;18.83;14.73;;;;;;;4.99;100.00;101310.22;5053457;28;20017;-79
2022/01/02 05:29:40;;;;;;;27.92;19.88;;;;;;;4.93;100.00;101315.78;5053060;28;20028;-79
2022/01/02 05:32:05;;;;;;;19.40;12.70;;;;;;;5.02;100.00;101329.28;5052705;28;20071;-83
2022/01/02 05:34:31;;;;;;;18.83;13.07;;;;;;;4.93;100.00;101308.09;5053266;28;20029;-78
2022/01/02 05:36:56;;;;;;;19.42;13.05;;;;;;;5.01;100.00;101303.56;5053184;28;20063;-81
2022/01/02 05:39:22;;;;;;;28.05;12.63;;;;;;;5.09;100.00;101319.47;5053276;28;20021;-87
2022/01/02 05:41:49;;;;;;;17.23;11.75;;;;;;;5.10;100.00;101322.13;5035137;28;20021;-84
2022/01/02 05:44:15;;;;;;;21.38;12.38;;;;;;;4.91;100.00;101309.69;5034039;28;20053;-83
2022/01/02 05:46:41;;;;;;;24.27;16.27;;;;;;;4.86;100.00;101281.19;5052649;28;20037;-81
2022/01/02 05:49:07;;;;;;;31.10;23.67;;;;;;;5.16;100.00;101332.81;5053016;28;20028;-82
2022/01/02 05:51:32;;;;;;;29.25;21.15;;;;;;;5.14;100.00;101323.25;5053070;28;20035;-84
2022/01/02 05:53:58;;;;;;;25.80;18.90;;;;;;;5.08;100.00;101325.38;5052909;28;20040;-83
2022/01/02 05:56:23;;;;;;;29.88;20.70;;;;;;;5.01;100.00;101312.13;5052609;28;20025;-81
2022/01/02 05:58:49;;;;;;;34.35;23.15;;;;;;;4.73;100.00;101270.84;5052324;28;20107;-83
2022/01/02 06:01:16;;;;;;;33.10;28.60;;;;;;;4.97;100.00;101307.56;5034455;28;20041;-82
2022/01/02 06:03:41;;;;;;;27.90;21.65;;;;;;;5.08;100.00;101327.94;5035079;28;20087;-79
2022/01/02 06:06:07;;;;;;;30.45;19.42;;;;;;;4.95;100.00;101323.59;5052564;28;20471;-80
2022/01/02 06:08:32;;;;;;;18.90;14.85;;;;;;;4.40;100.00;101290.59;5052856;28;20486;-78
2022/01/02 06:10:58;;;;;;;17.40;10.85;;;;;;;4.19;100.00;101311.19;5052115;28;20029;-76
2022/01/02 06:13:23;;;;;;;16.10;11.93;;;;;;;4.25;100.00;101333.78;5052313;28;20457;-81
2022/01/02 06:15:49;;;;;;;16.13;12.90;;;;;;;4.33;100.00;101331.78;5034546;28;20025;-79
2022/01/02 06:18:15;;;;;;;15.32;11.65;;;;;;;4.51;100.00;101345.06;5051131;28;20077;-82
2022/01/02 06:20:41;;;;;;;13.80;10.55;;;;;;;4.58;100.00;101344.75;5053213;28;20043;-80
2022/01/02 06:23:06;;;;;;;15.00;11.57;;;;;;;4.51;100.00;101350.19;5051503;28;20036;-79
2022/01/02 06:25:33;;;;;;;14.73;11.25;;;;;;;4.64;100.00;101352.00;5053057;28;20025;-80
2022/01/02 06:27:59;;;;;;;18.83;14.30;;;;;;;4.56;100.00;101343.78;5053311;28;20033;-80
2022/01/02 06:30:25;;;;;;;23.02;15.35;;;;;;;4.72;100.00;101355.13;5052975;28;20501;-80
2022/01/02 06:32:54;;;;;;;19.27;14.02;;;;;;;4.67;100.00;101365.94;5053224;28;20035;-77
2022/01/02 06:35:31;;;;;;;;;;;;;;;4.63;100.00;101370.69;5050816;28;20099;-77
2022/01/02 06:37:57;;;;;;;23.33;16.30;;;;;;;4.66;100.00;101376.94;5052798;28;19970;-81
2022/01/02 06:40:24;;;;;;;24.92;18.38;;;;;;;4.66;100.00;101363.22;5052721;28;20029;-77
2022/01/02 06:42:50;;;;;;;23.40;18.05;;;;;;;4.84;100.00;101371.41;5034845;28;20060;-78
2022/01/02 06:45:15;;;;;;;24.23;16.05;;;;;;;4.65;100.00;101330.78;5031361;28;20083;-77
2022/01/02 06:47:41;;;;;;;21.88;16.35;;;;;;;5.00;100.00;101376.00;5032874;28;20033;-77
2022/01/02 06:50:09;;;;;;;22.40;16.83;;;;;;;5.14;100.00;101374.44;5032774;28;20033;-79
2022/01/02 06:52:34;;;;;;;22.27;15.90;;;;;;;5.21;100.00;101392.06;5032725;28;20030;-77
2022/01/02 06:55:00;;;;;;;21.30;15.77;;;;;;;5.31;100.00;101394.50;5032739;28;20037;-78
2022/01/02 06:57:26;;;;;;;23.67;16.45;;;;;;;5.09;100.00;101340.84;5032748;28;20034;-78
2022/01/02 06:59:51;;;;;;;21.67;15.75;;;;;;;5.19;100.00;101362.88;5032440;28;20454;-76
2022/01/02 07:02:17;;;;;;;19.90;14.57;;;;;;;5.53;100.00;101393.47;5032694;28;20030;-78
2022/01/02 07:04:43;;;;;;;18.40;14.38;;;;;;;5.61;100.00;101394.94;5032578;28;20025;-82
2022/01/02 07:07:09;;;;;;;20.38;16.25;;;;;;;5.77;100.00;101388.31;5032543;28;20043;-78
2022/01/02 07:09:34;;;;;;;20.00;15.98;;;;;;;5.89;100.00;101399.44;5032417;28;20033;-80
2022/01/02 07:12:00;;;;;;;16.48;12.48;;;;;;;5.98;100.00;101400.16;5032205;28;20037;-77
2022/01/02 07:14:27;;;;;;;15.95;12.93;;;;;;;5.98;100.00;101397.59;5032200;28;20029;-77
2022/01/02 07:16:56;;;;;;;17.98;15.38;;;;;;;6.19;100.00;101407.53;5032134;28;20040;-78
2022/01/02 07:19:22;;;;;;;16.88;13.07;;;;;;;6.30;100.00;101406.63;5032270;28;20033;-79
2022/01/02 07:21:49;;;;;;;17.63;13.55;;;;;;;6.36;100.00;101402.72;5030795;28;20048;-78
2022/01/02 07:24:14;;;;;;;17.00;13.27;;;;;;;6.35;100.00;101382.97;5032193;28;20033;-79
2022/01/02 07:26:40;;;;;;;19.08;14.40;;;;;;;6.57;100.00;101404.19;5031953;28;20510;-79
2022/01/02 07:29:05;;;;;;;18.67;14.75;;;;;;;6.63;100.00;101393.47;5031666;28;20036;-79
2022/01/02 07:31:31;;;;;;;17.75;14.13;;;;;;;6.83;100.00;101411.84;5031935;28;20399;-79
2022/01/02 07:33:56;;;;;;;18.52;15.02;;;;;;;6.87;100.00;101395.91;5031781;28;20025;-82
2022/01/02 07:36:22;;;;;;;19.17;15.80;;;;;;;6.84;100.00;101376.06;5031929;28;20026;-79
2022/01/02 07:38:48;;;;;;;17.25;13.10;;;;;;;7.17;100.00;101409.88;5031818;28;20480;-83
2022/01/02 07:41:14;;;;;;;17.88;13.20;;;;;;;7.25;100.00;101405.22;5031659;28;20104;-79
2022/01/02 07:43:40;;;;;;;19.33;13.38;;;;;;;7.36;100.00;101408.50;5036505;28;20116;-79
2022/01/02 07:46:05;;;;;;;15.70;11.60;;;;;;;7.53;100.00;101418.19;5052005;28;20025;-80
2022/01/02 07:48:31;;;;;;;15.63;11.75;;;;;;;7.53;100.00;101407.91;5051670;28;20554;-79
2022/01/02 07:50:56;;;;;;;15.70;11.48;;;;;;;7.56;100.00;101413.25;5051412;28;20107;-79
2022/01/02 07:53:22;;;;;;;15.82;12.50;;;;;;;7.56;100.00;101402.06;5051365;28;20086;-78
2022/01/02 07:55:47;;;;;;;14.20;11.40;;;;;;;7.71;100.00;101405.66;5051177;28;20033;-77
2022/01/02 07:58:13;;;;;;;15.82;11.75;;;;;;;7.68;100.00;101384.00;5051439;28;20517;-79
2022/01/02 08:00:38;;;;;;;13.77;10.50;;;;;;;8.12;100.00;101427.00;5051451;28;20032;-79
2022/01/02 08:03:04;;;;;;;14.88;10.88;;;;;;;8.09;100.00;101408.84;5051273;28;20078;-77
2022/01/02 08:05:29;;;;;;;16.50;11.98;;;;;;;8.25;100.00;101420.97;5050342;28;20107;-78
2022/01/02 08:07:56;;;;;;;12.88;10.45;;;;;;;8.23;100.00;101414.81;5029885;28;20034;-79
2022/01/02 08:10:22;;;;;;;16.17;11.45;;;;;;;8.42;100.00;101428.03;5043237;28;20087;-80
2022/01/02 08:12:47;;;;;;;11.38;9.55;;;;;;;8.52;100.00;101428.63;5047526;28;20455;-79
2022/01/02 08:15:13;;;;;;;12.75;10.10;;;;;;;8.47;100.00;101420.59;5046593;28;20035;-79
2022/01/02 08:17:38;;;;;;;12.73;10.55;;;;;;;8.54;100.00;101417.63;5049427;28;20025;-79
2022/01/02 08:20:05;;;;;;;13.88;10.70;;;;;;;8.47;100.00;101405.16;5041946;28;20064;-78
2022/01/02 08:22:30;;;;;;;15.35;10.90;;;;;;;8.69;100.00;101427.06;5045676;28;20112;-79
2022/01/02 08:24:56;;;;;;;13.07;10.13;;;;;;;8.50;100.00;101389.94;5048015;28;20124;-79
2022/01/02 08:27:21;;;;;;;14.23;10.30;;;;;;;8.85;100.00;101434.03;5041458;28;20048;-76
2022/01/02 08:29:47;;;;;;;12.82;10.35;;;;;;;8.95;100.00;101435.44;5049488;28;20107;-80
2022/01/02 08:32:12;;;;;;;13.52;9.90;;;;;;;9.09;100.00;101424.25;5046909;28;20143;-81
2022/01/02 08:34:38;;;;;;;14.32;9.95;;;;;;;9.16;100.00;101428.06;5041377;28;20037;-80
2022/01/02 08:37:03;;;;;;;11.95;9.75;;;;;;;9.33;100.00;101424.81;5040212;28;20407;-78
2022/01/02 08:39:29;;;;;;;13.85;10.85;;;;;;;9.35;100.00;101422.31;5039183;28;20099;-78
2022/01/02 08:41:55;;;;;;;15.52;9.70;;;;;;;9.63;100.00;101439.34;5041414;28;20032;-78
2022/01/02 08:44:20;;;;;;;13.30;10.40;;;;;;;9.65;100.00;101435.16;5039224;28;20490;-78
2022/01/02 08:46:46;;;;;;;13.13;10.35;;;;;;;9.60;100.00;101414.28;5040790;28;20481;-80
2022/01/02 08:49:11;;;;;;;12.02;9.95;;;;;;;9.88;100.00;101439.00;5040968;28;20524;-79
2022/01/02 08:51:37;;;;;;;12.15;9.57;;;;;;;9.92;100.00;101442.66;5039451;28;20052;-76
2022/01/02 08:54:05;;;;;;;13.30;10.88;;;;;;;9.99;100.00;101432.78;5040720;28;20471;-77
2022/01/02 08:56:31;;;;;;;12.80;10.90;;;;;;;10.19;100.00;101441.59;5040722;28;20025;-78
2022/01/02 08:58:58;;;;;;;12.20;9.98;;;;;;;10.28;100.00;101445.47;5045043;28;20032;-76
2022/01/02 09:01:23;;;;;;;12.50;10.23;;;;;;;10.45;100.00;101443.81;5050115;28;20490;-78
2022/01/02 09:03:49;;;;;;;13.45;9.88;;;;;;;10.53;100.00;101432.22;5047219;28;20030;-76
2022/01/02 09:06:15;;;;;;;13.23;9.75;;;;;;;10.47;100.00;101394.03;5048641;28;20037;-78
2022/01/02 09:08:41;;;;;;;13.38;9.38;;;;;;;10.80;100.00;101434.44;5048837;28;20032;-79
2022/01/02 09:11:07;;;;;;;13.95;8.90;;;;;;;10.88;100.00;101432.25;5039055;28;20349;-80
2022/01/02 09:13:33;;;;;;;12.73;9.35;;;;;;;10.99;100.00;101431.09;5048507;28;20025;-80
2022/01/02 09:15:59;;;;;;;13.68;9.82;;;;;;;11.03;100.00;101409.78;5050228;28;20024;-77
2022/01/02 09:18:25;;;;;;;10.60;9.13;;;;;;;11.21;100.00;101402.06;5050192;28;20025;-78
2022/01/02 09:20:51;;;;;;;11.55;8.60;;;;;;;11.38;100.00;101405.47;5049883;28;20410;-78
2022/01/02 09:23:17;;;;;;;10.77;8.55;;;;;;;11.46;100.00;101388.66;5046025;28;20487;-78
2022/01/02 09:25:43;;;;;;;10.75;8.98;;;;;;;11.73;100.00;101405.41;5032083;28;20028;-80
2022/01/02 09:28:09;;;;;;;10.05;8.20;;;;;;;11.84;100.00;101385.19;5032067;28;20499;-79
2022/01/02 09:30:34;;;;;;;12.25;8.73;;;;;;;12.08;100.00;101390.66;5049886;28;20028;-80
2022/01/02 09:33:01;;;;;;;15.50;12.07;;;;;;;12.07;100.00;101381.09;5049982;28;20021;-82
2022/01/02 09:35:27;;;;;;;10.43;7.60;;;;;;;12.22;100.00;101381.78;5049605;28;20028;-79
2022/01/02 09:37:52;;;;;;;7.72;6.03;;;;;;;12.35;99.25;101369.38;5034560;28;20033;-79
2022/01/02 09:40:21;;;;;;;7.55;5.40;;;;;;;12.41;98.75;101362.78;5030295;28;20484;-78
2022/01/02 09:42:46;;;;;;;7.43;5.93;;;;;;;12.30;99.05;101341.59;5030176;28;20541;-79
2022/01/02 09:45:13;;;;;;;8.40;5.55;;;;;;;12.55;97.78;101378.94;5032162;28;20062;-76
2022/01/02 09:47:38;;;;;;;5.28;4.32;;;;;;;12.56;94.03;101379.81;5041435;28;20123;-81
2022/01/02 09:50:07;;;;;;;7.65;4.45;;;;;;;12.74;94.46;101377.13;5026959;28;20461;-78
2022/01/02 09:52:33;;;;;;;7.15;4.00;;;;;;;12.56;93.77;101348.72;5050024;28;20028;-75
2022/01/02 09:54:59;;;;;;;5.55;4.10;;;;;;;12.71;93.51;101364.03;5033982;28;20501;-84
2022/01/02 09:57:24;;;;;;;5.70;4.00;;;;;;;12.68;91.42;101338.00;5052986;28;20025;-82
2022/01/02 09:59:50;;;;;;;8.07;4.47;;;;;;;12.86;90.67;101359.53;5052846;28;20025;-82
2022/01/02 10:02:15;;;;;;;5.93;4.40;;;;;;;12.92;91.41;101353.69;5051101;28;20435;-83
2022/01/02 10:04:42;;;;;;;10.07;4.85;;;;;;;13.04;91.25;101354.19;5052370;28;20021;-74
2022/01/02 10:07:33;;;;;;;6.03;4.55;;;;;;;13.15;91.07;101369.31;5052105;28;20039;-75
2022/01/02 10:10:09;;;;;;;6.65;4.30;;;;;;;13.29;88.79;101352.59;5052653;28;20021;-78
2022/01/02 10:12:35;;;;;;;7.65;5.20;;;;;;;13.41;88.45;101350.53;5034932;28;20548;-76
2022/01/02 10:15:06;;;;;;;8.05;4.53;;;;;;;13.47;88.00;101355.09;5052302;28;20059;-76
2022/01/02 10:17:55;;;;;;;5.50;4.03;;;;;;;13.42;88.10;101354.91;5052078;28;20033;-76
2022/01/02 10:20:24;;;;;;;6.03;4.40;;;;;;;13.51;89.40;101345.72;5052185;28;20475;-77
2022/01/02 10:23:07;;;;;;;6.78;5.28;;;;;;;13.66;88.68;101343.72;5052406;28;20514;-77
2022/01/02 10:25:43;;;;;;;8.52;5.78;;;;;;;13.52;89.27;101313.75;5052353;28;20048;-77
2022/01/02 10:28:30;;;;;;;11.43;5.47;;;;;;;13.69;88.02;101342.94;5052473;28;20025;-78
2022/01/02 10:31:07;;;;;;;6.28;4.88;;;;;;;13.56;87.77;101300.94;5034337;28;20028;-78
2022/01/02 10:33:56;;;;;;;6.50;4.32;;;;;;;13.93;87.45;101339.50;5051994;28;20483;-79
2022/01/02 10:36:34;;;;;;;6.38;4.53;;;;;;;13.86;88.94;101320.22;5051498;28;20028;-76
2022/01/02 10:39:18;;;;;;;7.22;6.05;;;;;;;13.61;87.55;101284.66;5052190;28;20104;-76
2022/01/02 10:41:49;;;;;;;11.52;8.77;;;;;;;13.76;86.16;101311.22;5049518;28;20032;-74
2022/01/02 10:44:30;;;;;;;15.30;13.15;;;;;;;13.88;88.11;101318.56;5052272;28;20467;-75
2022/01/02 10:47:22;;;;;;;6.88;5.57;;;;;;;13.98;88.36;101327.56;5050618;28;20112;-76
2022/01/02 10:50:03;;;;;;;7.15;5.20;;;;;;;13.89;88.13;101323.81;5050073;28;20029;-76
2022/01/02 10:52:32;;;;;;;12.20;8.32;;;;;;;13.88;86.56;101323.75;5051936;28;20017;-74
2022/01/02 10:55:00;;;;;;;15.57;11.25;;;;;;;13.70;86.12;101280.72;5051166;28;20025;-76
2022/01/02 10:57:26;;;;;;;6.57;4.68;;;;;;;13.94;85.51;101302.34;5051653;28;20021;-78
2022/01/02 10:59:56;;;;;;;5.78;4.20;;;;;;;13.90;85.31;101285.75;5051971;28;20040;-77
2022/01/02 11:02:24;;;;;;;6.00;5.15;;;;;;;14.18;85.93;101317.91;5050900;28;20057;-77
2022/01/02 11:04:54;;;;;;;6.53;5.43;;;;;;;14.06;84.07;101277.69;5052114;28;20111;-78
2022/01/02 11:07:22;;;;;;;6.70;5.60;;;;;;;14.17;86.93;101313.56;5033560;28;20021;-78
2022/01/02 11:09:49;;;;;;;5.30;3.97;;;;;;;14.13;84.30;101290.88;5051454;28;20468;-76
2022/01/02 11:12:16;;;;;;;8.20;4.93;;;;;;;14.18;87.04;101310.09;5051510;28;20045;-78
2022/01/02 11:14:42;;;;;;;7.40;4.60;;;;;;;13.98;86.10;101275.66;5051127;28;20032;-77
2022/01/02 11:17:08;;;;;;;6.35;4.93;;;;;;;14.03;86.53;101294.88;5051587;28;20029;-76
2022/01/02 11:19:33;;;;;;;8.80;5.07;;;;;;;14.11;86.50;101289.97;5051305;28;20112;-75
2022/01/02 11:22:03;;;;;;;7.38;5.10;;;;;;;14.24;87.81;101305.13;5051075;28;20021;-76
2022/01/02 11:24:34;;;;;;;8.20;5.45;;;;;;;14.20;87.05;101298.06;5051664;28;20154;-73